createdAt,value
2022-08-16T00:01:59.969Z,11.45
2022-08-16T00:04:37.171Z,11.90
2022-08-16T00:07:13.139Z,12.70
2022-08-16T00:09:46.565Z,12.23
2022-08-16T00:12:20.233Z,12.25
2022-08-16T00:14:56.898Z,12.27
2022-08-16T00:17:57.123Z,12.43
2022-08-16T00:20:31.503Z,12.73
2022-08-16T00:23:08.089Z,12.30
2022-08-16T00:26:35.310Z,11.85
2022-08-16T00:28:38.375Z,12.48
2022-08-16T00:31:13.863Z,13.20
2022-08-16T00:33:50.163Z,13.23
2022-08-16T00:36:24.767Z,12.63
2022-08-16T00:38:59.889Z,13.35
2022-08-16T00:41:38.219Z,13.32
2022-08-16T00:44:32.830Z,13.13
2022-08-16T00:47:10.862Z,13.85
2022-08-16T00:49:45.215Z,14.52
2022-08-16T00:52:30.889Z,14.48
2022-08-16T00:55:08.505Z,14.88
2022-08-16T00:57:58.656Z,15.23
2022-08-16T01:00:35.672Z,15.48
2022-08-16T01:03:14.078Z,14.80
2022-08-16T01:05:49.201Z,15.50
2022-08-16T01:08:36.473Z,15.25
2022-08-16T01:11:12.922Z,15.68
2022-08-16T01:13:48.043Z,14.95
2022-08-16T01:16:25.784Z,14.70
2022-08-16T01:19:05.714Z,14.80
2022-08-16T01:21:48.294Z,15.60
2022-08-16T01:24:51.600Z,16.02
2022-08-16T01:27:28.551Z,16.33
2022-08-16T01:30:06.162Z,17.20
2022-08-16T01:33:02.457Z,15.70
2022-08-16T01:35:53.317Z,16.95
2022-08-16T01:38:29.074Z,17.35
2022-08-16T01:41:07.346Z,16.90
2022-08-16T01:43:45.775Z,17.35
2022-08-16T01:46:40.149Z,17.52
2022-08-16T01:49:23.086Z,17.15
2022-08-16T01:52:03.586Z,17.33
2022-08-16T01:54:49.623Z,17.02
2022-08-16T01:57:28.822Z,16.70
2022-08-16T02:00:10.573Z,17.33
2022-08-16T02:02:54.088Z,16.83
2022-08-16T02:05:30.621Z,16.20
2022-08-16T02:08:08.528Z,15.00
2022-08-16T02:11:02.332Z,14.05
2022-08-16T02:13:41.781Z,12.88
2022-08-16T02:16:19.345Z,13.55
2022-08-16T02:18:54.053Z,12.23
2022-08-16T02:21:31.435Z,10.80
2022-08-16T02:24:32.143Z,11.27
2022-08-16T02:27:00.065Z,10.77
2022-08-16T02:29:41.493Z,10.50
2022-08-16T02:33:02.565Z,9.55
2022-08-16T02:35:13.085Z,9.98
2022-08-16T02:37:52.595Z,10.93
2022-08-16T02:40:30.625Z,10.50
2022-08-16T02:43:05.325Z,10.52
2022-08-16T02:45:41.210Z,10.88
2022-08-16T02:48:29.649Z,9.57
2022-08-16T02:51:11.452Z,10.02
2022-08-16T02:53:49.992Z,9.82
2022-08-16T02:56:36.641Z,9.90
2022-08-16T02:59:11.828Z,9.70
2022-08-16T03:01:51.833Z,9.18
2022-08-16T03:04:50.040Z,8.48
2022-08-16T03:07:28.087Z,9.10
2022-08-16T03:10:02.141Z,7.80
2022-08-16T03:12:55.676Z,7.90
2022-08-16T03:15:33.872Z,8.05
2022-08-16T03:18:12.689Z,7.30
2022-08-16T03:21:03.292Z,7.60
2022-08-16T03:23:38.439Z,7.13
2022-08-16T03:26:16.563Z,7.80
2022-08-16T03:28:55.462Z,7.60
2022-08-16T03:31:34.852Z,7.32
2022-08-16T03:34:19.744Z,7.78
2022-08-16T03:36:54.863Z,7.50
2022-08-16T03:39:28.711Z,7.20
2022-08-16T03:42:05.341Z,7.35
2022-08-16T03:44:49.566Z,8.20
2022-08-16T03:47:34.309Z,8.10
2022-08-16T03:50:26.234Z,8.80
2022-08-16T03:53:05.911Z,8.68
2022-08-16T03:55:45.506Z,8.48
2022-08-16T03:58:22.318Z,9.15
2022-08-16T04:00:59.121Z,9.25
2022-08-16T04:03:33.417Z,8.10
2022-08-16T04:06:10.845Z,7.82
2022-08-16T04:08:45.194Z,7.88
2022-08-16T04:11:19.792Z,7.70
2022-08-16T04:14:01.250Z,8.77
2022-08-16T04:16:47.319Z,8.90
2022-08-16T04:19:38.674Z,8.35
2022-08-16T04:22:27.541Z,7.80
2022-08-16T04:25:07.407Z,8.68
2022-08-16T04:27:54.258Z,7.90
2022-08-16T04:30:32.209Z,9.23
2022-08-16T04:33:09.982Z,9.38
2022-08-16T04:35:49.541Z,9.65
2022-08-16T04:38:25.782Z,9.43
2022-08-16T04:41:04.944Z,9.27
2022-08-16T04:43:43.701Z,8.80
2022-08-16T04:46:33.218Z,9.00
2022-08-16T04:49:13.375Z,10.52
2022-08-16T04:51:53.897Z,9.10
2022-08-16T04:54:31.383Z,9.05
2022-08-16T04:57:06.542Z,8.88
2022-08-16T04:59:40.374Z,9.55
2022-08-16T05:02:41.591Z,9.23
2022-08-16T05:05:17.179Z,9.75
2022-08-16T05:07:58.552Z,9.38
2022-08-16T05:10:40.734Z,9.77
2022-08-16T05:13:15.791Z,10.43
2022-08-16T05:15:50.537Z,10.63
2022-08-16T05:18:38.737Z,9.95
2022-08-16T05:21:12.724Z,11.27
2022-08-16T05:23:55.538Z,10.57
2022-08-16T05:26:35.978Z,9.88
2022-08-16T05:29:10.918Z,10.20
2022-08-16T05:31:55.940Z,10.70
2022-08-16T05:34:30.341Z,10.55
2022-08-16T05:37:03.979Z,11.45
2022-08-16T05:39:45.228Z,11.02
2022-08-16T05:42:22.287Z,10.82
2022-08-16T05:45:13.809Z,11.23
2022-08-16T05:47:59.558Z,10.80
2022-08-16T05:50:41.689Z,11.82
2022-08-16T05:53:15.350Z,11.73
2022-08-16T05:56:06.023Z,11.70
2022-08-16T05:58:46.065Z,11.02
2022-08-16T06:01:22.247Z,11.65
2022-08-16T06:03:58.709Z,11.60
2022-08-16T06:06:40.112Z,12.27
2022-08-16T06:09:15.549Z,12.68
2022-08-16T06:11:53.718Z,13.10
2022-08-16T06:14:30.045Z,12.77
2022-08-16T06:17:05.749Z,12.40
2022-08-16T06:19:48.272Z,13.45
2022-08-16T06:22:37.446Z,12.40
2022-08-16T06:25:15.088Z,12.82
2022-08-16T06:27:57.303Z,12.27
2022-08-16T06:30:43.340Z,13.00
2022-08-16T06:33:22.177Z,13.48
2022-08-16T06:36:00.107Z,12.85
2022-08-16T06:38:36.633Z,13.20
2022-08-16T06:41:21.535Z,13.32
2022-08-16T06:43:55.884Z,13.20
2022-08-16T06:46:38.850Z,13.00
2022-08-16T06:49:25.322Z,12.93
2022-08-16T06:52:02.651Z,13.70
2022-08-16T06:54:43.231Z,13.63
2022-08-16T06:57:24.398Z,13.20
2022-08-16T06:59:58.705Z,13.32
2022-08-16T07:02:51.444Z,12.95
2022-08-16T07:05:41.354Z,12.40
2022-08-16T07:08:27.382Z,13.18
2022-08-16T07:11:03.588Z,12.95
2022-08-16T07:14:03.946Z,12.60
2022-08-16T07:16:40.218Z,12.82
2022-08-16T07:19:19.532Z,12.45
2022-08-16T07:21:59.924Z,13.35
2022-08-16T07:24:35.684Z,12.15
2022-08-16T07:27:19.955Z,12.80
2022-08-16T07:29:55.558Z,13.50
2022-08-16T07:32:52.333Z,12.90
2022-08-16T07:35:29.622Z,12.90
2022-08-16T07:38:05.892Z,13.38
2022-08-16T07:40:59.517Z,13.55
2022-08-16T07:43:35.000Z,13.15
2022-08-16T07:46:39.126Z,12.95
2022-08-16T07:49:14.378Z,13.45
2022-08-16T07:51:54.334Z,12.18
2022-08-16T07:54:39.240Z,12.90
2022-08-16T07:57:20.121Z,13.07
2022-08-16T08:00:01.092Z,12.70
2022-08-16T08:02:37.629Z,10.30
2022-08-16T08:05:25.604Z,10.60
2022-08-16T08:08:51.531Z,10.05
2022-08-16T08:11:09.254Z,10.35
2022-08-16T08:13:43.752Z,10.90
2022-08-16T08:16:30.520Z,10.27
2022-08-16T08:19:06.460Z,10.60
2022-08-16T08:21:59.212Z,11.05
2022-08-16T08:24:47.072Z,10.75
2022-08-16T08:27:23.568Z,10.85
2022-08-16T08:30:49.508Z,10.60
2022-08-16T08:33:15.276Z,10.38
2022-08-16T08:35:50.980Z,10.57
2022-08-16T08:38:45.081Z,11.05
2022-08-16T08:41:31.023Z,10.55
2022-08-16T08:44:29.107Z,10.63
2022-08-16T08:47:04.744Z,10.93
2022-08-16T08:49:46.466Z,10.80
2022-08-16T08:52:34.623Z,11.10
2022-08-16T08:55:15.079Z,10.98
2022-08-16T08:57:52.280Z,11.02
2022-08-16T09:00:50.185Z,11.60
2022-08-16T09:03:27.943Z,11.65
2022-08-16T09:06:02.796Z,12.32
2022-08-16T09:08:41.477Z,12.20
2022-08-16T09:11:23.584Z,12.00
2022-08-16T09:14:23.616Z,12.35
2022-08-16T09:17:05.144Z,12.35
2022-08-16T09:19:49.314Z,11.88
2022-08-16T09:22:28.888Z,11.75
2022-08-16T09:25:11.197Z,12.27
2022-08-16T09:27:57.682Z,11.93
2022-08-16T09:30:44.327Z,11.65
2022-08-16T09:33:21.944Z,12.13
2022-08-16T09:36:00.292Z,11.40
2022-08-16T09:38:36.592Z,12.07
2022-08-16T09:41:16.234Z,12.48
2022-08-16T09:43:58.620Z,11.68
2022-08-16T09:46:48.473Z,11.65
2022-08-16T09:49:23.852Z,11.95
2022-08-16T09:51:57.633Z,11.90
2022-08-16T09:54:32.880Z,12.82
2022-08-16T09:57:07.628Z,12.38
2022-08-16T09:59:48.087Z,12.38
2022-08-16T10:02:32.305Z,12.77
2022-08-16T10:05:07.550Z,12.52
2022-08-16T10:07:45.025Z,12.05
2022-08-16T10:10:30.905Z,12.45
2022-08-16T10:13:18.211Z,16.70
2022-08-16T10:15:58.771Z,12.85
2022-08-16T10:19:00.795Z,12.77
2022-08-16T10:21:32.177Z,13.55
2022-08-16T10:24:06.885Z,12.90
2022-08-16T10:27:17.501Z,13.25
2022-08-16T10:30:01.365Z,16.83
2022-08-16T10:32:30.309Z,16.52
2022-08-16T10:35:07.149Z,33.10
2022-08-16T10:37:40.390Z,16.83
2022-08-16T10:40:29.344Z,16.02
2022-08-16T10:43:04.820Z,26.67
2022-08-16T10:45:42.470Z,14.45
2022-08-16T10:48:35.049Z,18.52
2022-08-16T10:51:16.181Z,15.32
2022-08-16T10:53:49.842Z,13.88
2022-08-16T10:56:56.224Z,13.63
2022-08-16T10:59:44.578Z,14.20
2022-08-16T11:02:57.653Z,15.20
2022-08-16T11:05:14.352Z,14.18
2022-08-16T11:07:53.427Z,14.52
2022-08-16T11:16:26.810Z,14.75
2022-08-16T11:19:06.056Z,15.98
2022-08-16T11:24:44.870Z,13.95
2022-08-16T11:27:23.739Z,14.15
2022-08-16T11:30:00.191Z,13.57
2022-08-16T11:32:36.039Z,13.75
2022-08-16T11:35:15.553Z,13.93
2022-08-16T11:38:47.073Z,14.75
2022-08-16T11:40:52.541Z,14.45
2022-08-16T11:43:30.074Z,14.75
2022-08-16T11:46:44.521Z,13.65
2022-08-16T11:49:04.407Z,14.13
2022-08-16T11:51:37.413Z,14.20
2022-08-16T11:54:20.613Z,14.57
2022-08-16T11:56:57.649Z,14.63
2022-08-16T11:59:32.780Z,14.57
2022-08-16T12:02:32.645Z,15.15
2022-08-16T12:05:10.095Z,15.77
2022-08-16T12:07:45.982Z,15.40
2022-08-16T12:10:23.171Z,15.00
2022-08-16T12:13:06.215Z,15.63
2022-08-16T12:15:44.539Z,16.77
2022-08-16T12:18:22.050Z,16.65
2022-08-16T12:20:58.220Z,16.65
2022-08-16T12:23:33.307Z,16.85
2022-08-16T12:26:10.367Z,17.60
2022-08-16T12:28:56.225Z,17.88
2022-08-16T12:31:31.503Z,17.42
2022-08-16T12:34:09.364Z,16.98
2022-08-16T12:36:53.752Z,17.92
2022-08-16T12:39:31.293Z,18.48
2022-08-16T12:42:06.518Z,16.77
2022-08-16T12:44:43.321Z,17.98
2022-08-16T12:47:42.026Z,18.45
2022-08-16T12:50:18.252Z,19.13
2022-08-16T12:52:54.327Z,18.63
2022-08-16T12:55:33.580Z,19.30
2022-08-16T12:58:48.856Z,19.63
2022-08-16T13:01:16.034Z,18.70
2022-08-16T13:03:59.089Z,20.10
2022-08-16T13:06:42.570Z,20.02
2022-08-16T13:09:28.722Z,18.88
2022-08-16T13:12:10.467Z,19.55
2022-08-16T13:14:46.416Z,20.00
2022-08-16T13:17:29.521Z,20.02
2022-08-16T13:20:08.285Z,20.85
2022-08-16T13:22:55.228Z,20.35
2022-08-16T13:25:37.969Z,20.77
2022-08-16T13:28:15.145Z,21.63
2022-08-16T13:30:55.079Z,20.77
2022-08-16T13:33:38.545Z,21.20
2022-08-16T13:36:32.294Z,21.20
2022-08-16T13:39:11.593Z,20.95
2022-08-16T13:41:53.798Z,22.33
2022-08-16T13:44:46.501Z,21.13
2022-08-16T13:47:30.344Z,21.73
2022-08-16T13:50:17.571Z,19.85
2022-08-16T13:53:06.692Z,19.77
2022-08-16T13:55:41.112Z,20.35
2022-08-16T13:58:36.492Z,21.08
2022-08-16T14:01:10.851Z,20.02
2022-08-16T14:03:47.710Z,21.05
2022-08-16T14:06:24.907Z,20.42
2022-08-16T14:09:06.480Z,20.50
2022-08-16T14:11:47.449Z,20.25
2022-08-16T14:14:29.165Z,19.92
2022-08-16T14:17:12.940Z,20.42
2022-08-16T14:19:48.051Z,19.88
2022-08-16T14:22:34.864Z,20.05
2022-08-16T14:25:19.357Z,19.52
2022-08-16T14:27:56.194Z,20.17
2022-08-16T14:30:32.662Z,18.77
2022-08-16T14:33:08.509Z,18.23
2022-08-16T14:35:48.901Z,18.45
2022-08-16T14:38:26.266Z,18.42
2022-08-16T14:41:12.191Z,18.58
2022-08-16T14:43:47.218Z,18.48
2022-08-16T14:46:24.517Z,17.70
2022-08-16T14:49:02.351Z,17.60
2022-08-16T14:51:38.236Z,16.88
2022-08-16T14:54:15.680Z,16.92
2022-08-16T14:56:54.954Z,17.80
2022-08-16T14:59:30.914Z,18.10
2022-08-16T15:02:42.516Z,17.13
2022-08-16T15:05:18.468Z,17.13
2022-08-16T15:07:55.719Z,17.10
2022-08-16T15:10:37.194Z,17.75
2022-08-16T15:13:15.610Z,18.05
2022-08-16T15:15:58.860Z,17.20
2022-08-16T15:18:35.786Z,18.02
2022-08-16T15:21:10.869Z,18.23
2022-08-16T15:23:46.725Z,18.17
2022-08-16T15:26:34.614Z,18.35
2022-08-16T15:29:17.045Z,17.55
2022-08-16T15:32:00.618Z,18.38
2022-08-16T15:34:36.761Z,18.52
2022-08-16T15:37:12.384Z,18.33
2022-08-16T15:39:48.925Z,18.02
2022-08-16T15:42:34.563Z,16.17
2022-08-16T15:45:12.295Z,16.65
2022-08-16T15:47:55.552Z,16.33
2022-08-16T15:50:30.530Z,16.08
2022-08-16T15:53:13.177Z,17.58
2022-08-16T15:55:51.058Z,16.77
2022-08-16T15:58:35.600Z,18.27
2022-08-16T16:01:13.884Z,17.15
2022-08-16T16:03:49.519Z,19.08
2022-08-16T16:06:28.011Z,15.80
2022-08-16T16:09:04.849Z,17.65
2022-08-16T16:11:42.529Z,17.15
2022-08-16T16:14:19.858Z,16.60
2022-08-16T16:16:54.414Z,16.42
2022-08-16T16:19:30.517Z,17.02
2022-08-16T16:22:08.785Z,18.13
2022-08-16T16:24:45.873Z,17.27
2022-08-16T16:27:21.917Z,18.25
2022-08-16T16:30:01.868Z,18.38
2022-08-16T16:32:36.857Z,17.05
2022-08-16T16:35:18.473Z,16.33
2022-08-16T16:37:54.790Z,16.13
2022-08-16T16:40:33.064Z,16.40
2022-08-16T16:43:16.857Z,15.85
2022-08-16T16:45:53.652Z,15.43
2022-08-16T16:48:34.553Z,14.95
2022-08-16T16:51:12.222Z,14.68
2022-08-16T16:53:55.888Z,15.23
2022-08-16T16:56:37.584Z,15.18
2022-08-16T16:59:14.628Z,15.73
2022-08-16T17:02:00.172Z,15.38
2022-08-16T17:04:48.989Z,14.40
2022-08-16T17:07:24.405Z,14.85
2022-08-16T17:09:59.500Z,14.52
2022-08-16T17:12:46.825Z,13.95
2022-08-16T17:15:23.192Z,14.43
2022-08-16T17:18:01.935Z,14.13
2022-08-16T17:20:38.535Z,14.63
2022-08-16T17:23:13.485Z,15.25
2022-08-16T17:25:52.172Z,14.98
2022-08-16T17:28:58.201Z,15.60
2022-08-16T17:31:20.975Z,15.48
2022-08-16T17:34:30.259Z,15.23
2022-08-16T17:37:08.007Z,15.80
2022-08-16T17:39:57.228Z,15.65
2022-08-16T17:42:34.475Z,15.48
2022-08-16T17:45:08.901Z,16.35
2022-08-16T17:47:42.517Z,16.25
2022-08-16T17:50:18.345Z,16.40
2022-08-16T17:52:54.507Z,16.50
2022-08-16T17:55:31.850Z,16.45
2022-08-16T17:58:18.077Z,16.70
2022-08-16T18:00:58.612Z,17.15
2022-08-16T18:04:02.554Z,17.88
2022-08-16T18:06:34.133Z,16.83
2022-08-16T18:09:13.256Z,17.08
2022-08-16T18:11:48.227Z,16.92
2022-08-16T18:14:51.256Z,19.63
2022-08-16T18:17:21.341Z,17.90
2022-08-16T18:19:58.825Z,17.40
2022-08-16T18:22:52.581Z,18.50
2022-08-16T18:25:28.062Z,17.15
2022-08-16T18:28:02.205Z,16.23
2022-08-16T18:30:50.938Z,17.08
2022-08-16T18:33:29.834Z,17.92
2022-08-16T18:36:05.040Z,18.10
2022-08-16T18:38:57.817Z,19.23
2022-08-16T18:41:32.665Z,17.70
2022-08-16T18:44:25.388Z,16.80
2022-08-16T18:47:05.569Z,17.38
2022-08-16T18:49:39.349Z,16.95
2022-08-16T18:52:25.780Z,18.38
2022-08-16T18:55:13.505Z,18.02
2022-08-16T18:57:48.469Z,17.67
2022-08-16T19:00:45.691Z,18.98
2022-08-16T19:03:33.395Z,18.10
2022-08-16T19:06:13.753Z,18.48
2022-08-16T19:08:50.550Z,19.55
2022-08-16T19:11:30.572Z,19.67
2022-08-16T19:14:06.030Z,19.75
2022-08-16T19:16:46.914Z,19.67
2022-08-16T19:19:22.697Z,20.50
2022-08-16T19:21:56.892Z,19.73
2022-08-16T19:24:30.631Z,19.23
2022-08-16T19:27:07.491Z,20.25
2022-08-16T19:29:40.910Z,19.70
2022-08-16T19:32:22.151Z,21.15
2022-08-16T19:34:56.507Z,18.98
2022-08-16T19:37:30.218Z,18.83
2022-08-16T19:40:03.915Z,20.10
2022-08-16T19:43:03.538Z,19.08
2022-08-16T19:45:45.978Z,19.75
2022-08-16T19:48:20.446Z,19.13
2022-08-16T19:50:54.584Z,21.00
2022-08-16T19:53:28.928Z,21.92
2022-08-16T19:56:01.963Z,20.77
2022-08-16T19:58:37.560Z,21.38
2022-08-16T20:01:11.513Z,21.05
2022-08-16T20:03:45.209Z,21.05
2022-08-16T20:06:35.779Z,21.88
2022-08-16T20:09:15.016Z,22.42
2022-08-16T20:11:50.174Z,23.55
2022-08-16T20:14:26.473Z,21.52
2022-08-16T20:17:02.432Z,22.15
2022-08-16T20:19:40.080Z,22.83
2022-08-16T20:22:52.541Z,23.05
2022-08-16T20:25:29.639Z,22.73
2022-08-16T20:28:04.912Z,22.92
2022-08-16T20:30:40.893Z,24.35
2022-08-16T20:33:18.639Z,23.27
2022-08-16T20:35:53.507Z,24.08
2022-08-16T20:38:39.326Z,22.55
2022-08-16T20:41:12.462Z,21.50
2022-08-16T20:43:48.676Z,21.75
2022-08-16T20:46:24.983Z,22.23
2022-08-16T20:49:03.106Z,23.08
2022-08-16T20:51:46.679Z,21.60
2022-08-16T20:54:20.974Z,21.13
2022-08-16T20:56:55.203Z,23.02
2022-08-16T20:59:28.563Z,21.55
2022-08-16T21:02:04.881Z,23.15
2022-08-16T21:04:39.095Z,22.58
2022-08-16T21:07:14.023Z,22.70
2022-08-16T21:09:47.877Z,20.98
2022-08-16T21:12:22.134Z,22.77
2022-08-16T21:14:59.188Z,21.67
2022-08-16T21:17:34.899Z,22.00
2022-08-16T21:20:09.556Z,22.40
2022-08-16T21:22:43.547Z,21.95
2022-08-16T21:25:18.387Z,21.10
2022-08-16T21:28:40.480Z,22.42
2022-08-16T21:30:51.577Z,21.95
2022-08-16T21:33:27.428Z,21.65
2022-08-16T21:36:01.201Z,19.35
2022-08-16T21:38:35.405Z,20.55
2022-08-16T21:41:11.979Z,20.10
2022-08-16T21:43:46.059Z,19.90
2022-08-16T21:46:27.689Z,19.77
2022-08-16T21:49:04.673Z,20.92
2022-08-16T21:51:39.868Z,20.42
2022-08-16T21:54:13.884Z,20.67
2022-08-16T21:56:48.141Z,21.52
2022-08-16T21:59:22.919Z,22.03
2022-08-16T22:01:57.059Z,20.30
2022-08-16T22:04:37.316Z,20.45
2022-08-16T22:07:19.694Z,20.88
2022-08-16T22:09:53.508Z,20.97
2022-08-16T22:12:31.946Z,21.55
2022-08-16T22:15:07.068Z,21.33
2022-08-16T22:17:41.139Z,21.60
2022-08-16T22:20:19.694Z,22.10
2022-08-16T22:22:53.560Z,21.37
2022-08-16T22:25:27.375Z,22.70
2022-08-16T22:28:01.225Z,21.97
2022-08-16T22:30:35.088Z,20.20
2022-08-16T22:33:14.429Z,22.87
2022-08-16T22:35:55.857Z,22.58
2022-08-16T22:38:53.886Z,21.48
2022-08-16T22:41:24.311Z,23.73
2022-08-16T22:43:58.484Z,22.33
2022-08-16T22:46:33.022Z,23.02
2022-08-16T22:49:07.261Z,21.83
2022-08-16T22:51:44.058Z,22.38
2022-08-16T22:54:39.260Z,21.75
2022-08-16T22:57:11.992Z,21.60
2022-08-16T22:59:46.251Z,22.40
2022-08-16T23:02:20.800Z,20.55
2022-08-16T23:04:57.588Z,21.30
2022-08-16T23:07:34.009Z,21.08
2022-08-16T23:10:08.546Z,21.45
2022-08-16T23:12:52.727Z,21.60
2022-08-16T23:15:28.380Z,21.77
2022-08-16T23:18:03.300Z,21.63
2022-08-16T23:20:39.600Z,21.33
2022-08-16T23:23:19.165Z,22.08
2022-08-16T23:25:56.722Z,21.55
2022-08-16T23:28:32.920Z,21.30
2022-08-16T23:31:08.885Z,22.48
2022-08-16T23:33:43.622Z,23.55
2022-08-16T23:36:18.069Z,24.75
2022-08-16T23:38:53.831Z,23.15
2022-08-16T23:41:27.865Z,23.65
2022-08-16T23:44:57.768Z,21.42
2022-08-16T23:46:59.701Z,23.13
2022-08-16T23:50:01.596Z,23.17
2022-08-16T23:52:42.204Z,22.73
2022-08-16T23:55:25.067Z,22.45
2022-08-16T23:57:59.286Z,22.05
